sensor_id;sensor_type;location;lat;lon;timestamp;temperature;humidity
23556;DHT22;11956;53.184;8.578;2023-02-01T00:02:04;6.00;99.90
23556;DHT22;11956;53.184;8.578;2023-02-01T00:05:05;6.00;99.90
23556;DHT22;11956;53.184;8.578;2023-02-01T00:08:09;6.10;99.90
23556;DHT22;11956;53.184;8.578;2023-02-01T00:11:11;6.10;99.90
23556;DHT22;11956;53.184;8.578;2023-02-01T00:14:13;6.10;99.90
23556;DHT22;11956;53.184;8.578;2023-02-01T00:17:14;6.20;99.90
23556;DHT22;11956;53.184;8.578;2023-02-01T00:20:15;6.10;99.90
23556;DHT22;11956;53.184;8.578;2023-02-01T00:23:15;6.20;99.90
23556;DHT22;11956;53.184;8.578;2023-02-01T00:26:18;6.20;99.90
23556;DHT22;11956;53.184;8.578;2023-02-01T00:29:20;6.20;99.90
23556;DHT22;11956;53.184;8.578;2023-02-01T00:32:21;6.20;99.90
23556;DHT22;11956;53.184;8.578;2023-02-01T00:35:22;6.20;99.90
23556;DHT22;11956;53.184;8.578;2023-02-01T00:38:22;6.20;99.90
23556;DHT22;11956;53.184;8.578;2023-02-01T00:41:24;6.30;99.90
23556;DHT22;11956;53.184;8.578;2023-02-01T00:44:25;6.30;99.90
23556;DHT22;11956;53.184;8.578;2023-02-01T00:47:26;6.30;99.90
23556;DHT22;11956;53.184;8.578;2023-02-01T00:50:27;6.30;99.90
23556;DHT22;11956;53.184;8.578;2023-02-01T00:53:28;6.30;99.90
23556;DHT22;11956;53.184;8.578;2023-02-01T00:56:29;6.30;99.90
23556;DHT22;11956;53.184;8.578;2023-02-01T00:59:30;6.30;99.90
23556;DHT22;11956;53.184;8.578;2023-02-01T01:02:31;6.30;99.90
23556;DHT22;11956;53.184;8.578;2023-02-01T01:05:32;6.40;99.90
23556;DHT22;11956;53.184;8.578;2023-02-01T01:08:33;6.40;99.90
23556;DHT22;11956;53.184;8.578;2023-02-01T01:11:36;6.30;99.90
23556;DHT22;11956;53.184;8.578;2023-02-01T01:14:39;6.40;99.90
23556;DHT22;11956;53.184;8.578;2023-02-01T01:17:40;6.40;99.90
23556;DHT22;11956;53.184;8.578;2023-02-01T01:20:41;6.40;99.90
23556;DHT22;11956;53.184;8.578;2023-02-01T01:23:43;6.40;99.90
23556;DHT22;11956;53.184;8.578;2023-02-01T01:26:45;6.40;99.90
23556;DHT22;11956;53.184;8.578;2023-02-01T01:29:46;6.40;99.90
23556;DHT22;11956;53.184;8.578;2023-02-01T01:32:47;6.40;99.90
23556;DHT22;11956;53.184;8.578;2023-02-01T01:35:48;6.50;99.90
23556;DHT22;11956;53.184;8.578;2023-02-01T01:38:49;6.50;99.90
23556;DHT22;11956;53.184;8.578;2023-02-01T01:41:50;6.50;99.90
23556;DHT22;11956;53.184;8.578;2023-02-01T01:45:08;6.60;99.90
23556;DHT22;11956;53.184;8.578;2023-02-01T01:48:27;6.50;99.90
23556;DHT22;11956;53.184;8.578;2023-02-01T01:51:31;6.50;99.90
23556;DHT22;11956;53.184;8.578;2023-02-01T01:54:40;6.50;99.90
23556;DHT22;11956;53.184;8.578;2023-02-01T01:57:49;6.50;99.90
23556;DHT22;11956;53.184;8.578;2023-02-01T02:00:53;6.50;99.90
23556;DHT22;11956;53.184;8.578;2023-02-01T02:03:55;6.50;99.90
23556;DHT22;11956;53.184;8.578;2023-02-01T02:07:00;6.50;99.90
23556;DHT22;11956;53.184;8.578;2023-02-01T02:10:05;6.50;99.90
23556;DHT22;11956;53.184;8.578;2023-02-01T02:13:11;6.50;99.90
23556;DHT22;11956;53.184;8.578;2023-02-01T02:16:26;6.50;99.90
23556;DHT22;11956;53.184;8.578;2023-02-01T02:27:23;6.50;99.90
23556;DHT22;11956;53.184;8.578;2023-02-01T02:37:50;6.50;99.90
23556;DHT22;11956;53.184;8.578;2023-02-01T02:41:17;6.50;99.90
23556;DHT22;11956;53.184;8.578;2023-02-01T02:44:49;6.50;99.90
23556;DHT22;11956;53.184;8.578;2023-02-01T02:48:24;6.50;99.90
23556;DHT22;11956;53.184;8.578;2023-02-01T02:51:54;6.50;99.90
23556;DHT22;11956;53.184;8.578;2023-02-01T02:55:16;6.50;99.90
23556;DHT22;11956;53.184;8.578;2023-02-01T02:58:17;6.40;99.90
23556;DHT22;11956;53.184;8.578;2023-02-01T03:01:39;6.40;99.90
23556;DHT22;11956;53.184;8.578;2023-02-01T03:04:59;6.40;99.90
23556;DHT22;11956;53.184;8.578;2023-02-01T03:08:08;6.40;99.90
23556;DHT22;11956;53.184;8.578;2023-02-01T03:11:14;6.40;99.90
23556;DHT22;11956;53.184;8.578;2023-02-01T03:14:17;6.40;99.90
23556;DHT22;11956;53.184;8.578;2023-02-01T03:17:26;6.40;99.90
23556;DHT22;11956;53.184;8.578;2023-02-01T03:20:32;6.40;99.90
23556;DHT22;11956;53.184;8.578;2023-02-01T03:23:35;6.30;99.90
23556;DHT22;11956;53.184;8.578;2023-02-01T03:26:42;6.20;99.90
23556;DHT22;11956;53.184;8.578;2023-02-01T03:33:21;6.00;99.90
23556;DHT22;11956;53.184;8.578;2023-02-01T03:40:10;5.90;99.90
23556;DHT22;11956;53.184;8.578;2023-02-01T03:43:16;5.70;99.90
23556;DHT22;11956;53.184;8.578;2023-02-01T03:46:39;5.70;99.90
23556;DHT22;11956;53.184;8.578;2023-02-01T03:53:10;5.70;99.90
23556;DHT22;11956;53.184;8.578;2023-02-01T03:56:21;5.70;99.90
23556;DHT22;11956;53.184;8.578;2023-02-01T03:59:23;5.70;99.90
23556;DHT22;11956;53.184;8.578;2023-02-01T04:02:24;5.70;99.90
23556;DHT22;11956;53.184;8.578;2023-02-01T04:05:25;5.60;99.90
23556;DHT22;11956;53.184;8.578;2023-02-01T04:08:31;5.40;99.90
23556;DHT22;11956;53.184;8.578;2023-02-01T04:11:32;5.30;99.90
23556;DHT22;11956;53.184;8.578;2023-02-01T04:14:33;5.30;99.90
23556;DHT22;11956;53.184;8.578;2023-02-01T04:17:34;5.20;99.90
23556;DHT22;11956;53.184;8.578;2023-02-01T04:20:34;5.30;99.90
23556;DHT22;11956;53.184;8.578;2023-02-01T04:23:35;5.30;99.90
23556;DHT22;11956;53.184;8.578;2023-02-01T04:26:37;5.40;99.90
23556;DHT22;11956;53.184;8.578;2023-02-01T04:29:38;5.40;99.90
23556;DHT22;11956;53.184;8.578;2023-02-01T04:32:39;5.40;99.90
23556;DHT22;11956;53.184;8.578;2023-02-01T04:35:40;5.50;99.90
23556;DHT22;11956;53.184;8.578;2023-02-01T04:38:41;5.40;99.90
23556;DHT22;11956;53.184;8.578;2023-02-01T04:41:42;5.50;99.90
23556;DHT22;11956;53.184;8.578;2023-02-01T04:44:43;5.50;99.90
23556;DHT22;11956;53.184;8.578;2023-02-01T04:47:44;5.60;99.90
23556;DHT22;11956;53.184;8.578;2023-02-01T04:50:46;5.60;99.90
23556;DHT22;11956;53.184;8.578;2023-02-01T04:53:47;5.70;99.90
23556;DHT22;11956;53.184;8.578;2023-02-01T04:56:48;5.70;99.90
23556;DHT22;11956;53.184;8.578;2023-02-01T04:59:49;5.70;99.90
23556;DHT22;11956;53.184;8.578;2023-02-01T05:02:50;5.80;99.90
23556;DHT22;11956;53.184;8.578;2023-02-01T05:05:51;5.80;99.90
23556;DHT22;11956;53.184;8.578;2023-02-01T05:08:53;5.80;99.90
23556;DHT22;11956;53.184;8.578;2023-02-01T05:11:54;5.90;99.90
23556;DHT22;11956;53.184;8.578;2023-02-01T05:15:13;5.90;99.90
23556;DHT22;11956;53.184;8.578;2023-02-01T05:18:14;5.80;99.90
23556;DHT22;11956;53.184;8.578;2023-02-01T05:21:15;5.80;99.90
23556;DHT22;11956;53.184;8.578;2023-02-01T05:24:16;5.80;99.90
23556;DHT22;11956;53.184;8.578;2023-02-01T05:27:20;5.80;99.90
23556;DHT22;11956;53.184;8.578;2023-02-01T05:30:21;5.80;99.90
23556;DHT22;11956;53.184;8.578;2023-02-01T05:33:22;5.70;99.90
23556;DHT22;11956;53.184;8.578;2023-02-01T05:36:23;5.80;99.90
23556;DHT22;11956;53.184;8.578;2023-02-01T05:39:24;5.80;99.90
23556;DHT22;11956;53.184;8.578;2023-02-01T05:42:25;5.80;99.90
23556;DHT22;11956;53.184;8.578;2023-02-01T05:45:26;5.90;99.90
23556;DHT22;11956;53.184;8.578;2023-02-01T05:48:27;6.00;99.90
23556;DHT22;11956;53.184;8.578;2023-02-01T05:51:28;5.90;99.90
23556;DHT22;11956;53.184;8.578;2023-02-01T05:54:29;6.00;99.90
23556;DHT22;11956;53.184;8.578;2023-02-01T05:57:30;5.90;99.90
23556;DHT22;11956;53.184;8.578;2023-02-01T06:00:31;5.90;99.90
23556;DHT22;11956;53.184;8.578;2023-02-01T06:03:32;5.80;99.90
23556;DHT22;11956;53.184;8.578;2023-02-01T06:06:33;5.80;99.90
23556;DHT22;11956;53.184;8.578;2023-02-01T06:09:35;5.80;99.90
23556;DHT22;11956;53.184;8.578;2023-02-01T06:12:36;5.80;99.90
23556;DHT22;11956;53.184;8.578;2023-02-01T06:15:37;5.80;99.90
23556;DHT22;11956;53.184;8.578;2023-02-01T06:18:38;5.90;99.90
23556;DHT22;11956;53.184;8.578;2023-02-01T06:21:39;5.90;99.90
23556;DHT22;11956;53.184;8.578;2023-02-01T06:24:40;5.90;99.90
23556;DHT22;11956;53.184;8.578;2023-02-01T06:27:41;5.90;99.90
23556;DHT22;11956;53.184;8.578;2023-02-01T06:30:42;5.90;99.90
23556;DHT22;11956;53.184;8.578;2023-02-01T06:33:46;5.90;99.90
23556;DHT22;11956;53.184;8.578;2023-02-01T06:36:47;6.00;99.90
23556;DHT22;11956;53.184;8.578;2023-02-01T06:39:48;6.00;99.90
23556;DHT22;11956;53.184;8.578;2023-02-01T06:42:49;6.00;99.90
23556;DHT22;11956;53.184;8.578;2023-02-01T06:45:50;6.10;99.90
23556;DHT22;11956;53.184;8.578;2023-02-01T06:48:51;6.10;99.90
23556;DHT22;11956;53.184;8.578;2023-02-01T06:51:53;6.20;99.90
23556;DHT22;11956;53.184;8.578;2023-02-01T06:54:53;6.20;99.90
23556;DHT22;11956;53.184;8.578;2023-02-01T06:57:55;6.30;99.90
23556;DHT22;11956;53.184;8.578;2023-02-01T07:00:56;6.20;99.90
23556;DHT22;11956;53.184;8.578;2023-02-01T07:03:57;6.10;99.90
23556;DHT22;11956;53.184;8.578;2023-02-01T07:06:58;6.00;99.90
23556;DHT22;11956;53.184;8.578;2023-02-01T07:09:59;5.90;99.90
23556;DHT22;11956;53.184;8.578;2023-02-01T07:13:00;5.80;99.90
23556;DHT22;11956;53.184;8.578;2023-02-01T07:16:09;5.90;99.90
23556;DHT22;11956;53.184;8.578;2023-02-01T07:19:11;6.00;99.90
23556;DHT22;11956;53.184;8.578;2023-02-01T07:22:12;6.00;99.90
23556;DHT22;11956;53.184;8.578;2023-02-01T07:25:13;5.90;99.90
23556;DHT22;11956;53.184;8.578;2023-02-01T07:28:14;5.90;99.90
23556;DHT22;11956;53.184;8.578;2023-02-01T07:31:18;5.90;99.90
23556;DHT22;11956;53.184;8.578;2023-02-01T07:34:21;5.90;99.90
23556;DHT22;11956;53.184;8.578;2023-02-01T07:37:22;5.90;99.90
23556;DHT22;11956;53.184;8.578;2023-02-01T07:40:24;5.80;99.90
23556;DHT22;11956;53.184;8.578;2023-02-01T07:43:29;5.80;99.90
23556;DHT22;11956;53.184;8.578;2023-02-01T07:46:30;5.90;99.90
23556;DHT22;11956;53.184;8.578;2023-02-01T07:49:31;6.00;99.90
23556;DHT22;11956;53.184;8.578;2023-02-01T07:52:32;6.00;99.90
23556;DHT22;11956;53.184;8.578;2023-02-01T07:55:32;6.10;99.90
23556;DHT22;11956;53.184;8.578;2023-02-01T07:58:35;6.20;99.90
23556;DHT22;11956;53.184;8.578;2023-02-01T08:01:36;6.20;99.90
23556;DHT22;11956;53.184;8.578;2023-02-01T08:04:36;6.30;99.90
23556;DHT22;11956;53.184;8.578;2023-02-01T08:07:37;6.40;99.90
23556;DHT22;11956;53.184;8.578;2023-02-01T08:10:38;6.50;99.90
23556;DHT22;11956;53.184;8.578;2023-02-01T08:13:39;6.50;99.90
23556;DHT22;11956;53.184;8.578;2023-02-01T08:16:40;6.30;99.90
23556;DHT22;11956;53.184;8.578;2023-02-01T08:19:41;6.20;99.90
23556;DHT22;11956;53.184;8.578;2023-02-01T08:22:41;6.10;99.90
23556;DHT22;11956;53.184;8.578;2023-02-01T08:25:43;6.10;99.90
23556;DHT22;11956;53.184;8.578;2023-02-01T08:28:47;6.20;99.90
23556;DHT22;11956;53.184;8.578;2023-02-01T08:31:50;6.50;99.90
23556;DHT22;11956;53.184;8.578;2023-02-01T08:34:52;7.10;99.90
23556;DHT22;11956;53.184;8.578;2023-02-01T08:37:53;7.90;99.90
23556;DHT22;11956;53.184;8.578;2023-02-01T08:40:54;8.80;99.90
23556;DHT22;11956;53.184;8.578;2023-02-01T08:43:56;9.70;99.90
23556;DHT22;11956;53.184;8.578;2023-02-01T08:46:57;9.20;99.90
23556;DHT22;11956;53.184;8.578;2023-02-01T08:49:58;8.80;99.90
23556;DHT22;11956;53.184;8.578;2023-02-01T08:52:59;8.50;99.90
23556;DHT22;11956;53.184;8.578;2023-02-01T08:56:00;8.20;99.90
23556;DHT22;11956;53.184;8.578;2023-02-01T08:59:01;7.90;99.90
23556;DHT22;11956;53.184;8.578;2023-02-01T09:02:02;7.80;99.90
23556;DHT22;11956;53.184;8.578;2023-02-01T09:05:04;8.20;99.90
23556;DHT22;11956;53.184;8.578;2023-02-01T09:08:05;8.30;99.90
23556;DHT22;11956;53.184;8.578;2023-02-01T09:11:11;8.30;99.90
23556;DHT22;11956;53.184;8.578;2023-02-01T09:14:14;8.00;99.90
23556;DHT22;11956;53.184;8.578;2023-02-01T09:17:15;8.00;99.90
23556;DHT22;11956;53.184;8.578;2023-02-01T09:20:16;8.00;99.90
23556;DHT22;11956;53.184;8.578;2023-02-01T09:23:18;8.00;99.90
23556;DHT22;11956;53.184;8.578;2023-02-01T09:26:21;8.00;99.90
23556;DHT22;11956;53.184;8.578;2023-02-01T09:29:22;8.00;99.90
23556;DHT22;11956;53.184;8.578;2023-02-01T09:32:23;7.90;99.90
23556;DHT22;11956;53.184;8.578;2023-02-01T09:35:25;8.00;99.90
23556;DHT22;11956;53.184;8.578;2023-02-01T09:38:26;8.10;99.90
23556;DHT22;11956;53.184;8.578;2023-02-01T09:41:56;8.10;99.90
23556;DHT22;11956;53.184;8.578;2023-02-01T09:45:51;8.00;99.90
23556;DHT22;11956;53.184;8.578;2023-02-01T09:48:42;8.00;99.90
23556;DHT22;11956;53.184;8.578;2023-02-01T09:51:47;8.00;99.90
23556;DHT22;11956;53.184;8.578;2023-02-01T09:54:55;7.90;99.90
23556;DHT22;11956;53.184;8.578;2023-02-01T10:01:36;7.80;99.90
23556;DHT22;11956;53.184;8.578;2023-02-01T10:04:37;7.80;99.90
23556;DHT22;11956;53.184;8.578;2023-02-01T10:08:01;7.70;99.90
23556;DHT22;11956;53.184;8.578;2023-02-01T10:11:20;7.70;99.90
23556;DHT22;11956;53.184;8.578;2023-02-01T10:28:25;7.60;99.90
23556;DHT22;11956;53.184;8.578;2023-02-01T10:31:28;7.50;99.90
23556;DHT22;11956;53.184;8.578;2023-02-01T10:34:33;7.50;99.90
23556;DHT22;11956;53.184;8.578;2023-02-01T10:37:35;7.40;99.90
23556;DHT22;11956;53.184;8.578;2023-02-01T10:40:37;7.20;99.90
23556;DHT22;11956;53.184;8.578;2023-02-01T10:43:38;7.10;99.90
23556;DHT22;11956;53.184;8.578;2023-02-01T10:46:39;7.00;99.90
23556;DHT22;11956;53.184;8.578;2023-02-01T10:49:52;7.00;99.90
23556;DHT22;11956;53.184;8.578;2023-02-01T10:53:07;6.90;99.90
23556;DHT22;11956;53.184;8.578;2023-02-01T10:56:13;6.80;99.90
23556;DHT22;11956;53.184;8.578;2023-02-01T10:59:19;6.70;99.90
23556;DHT22;11956;53.184;8.578;2023-02-01T11:02:32;6.70;99.90
23556;DHT22;11956;53.184;8.578;2023-02-01T11:05:45;6.70;99.90
23556;DHT22;11956;53.184;8.578;2023-02-01T11:08:57;6.70;99.90
23556;DHT22;11956;53.184;8.578;2023-02-01T11:12:00;6.70;99.90
23556;DHT22;11956;53.184;8.578;2023-02-01T11:18:31;6.40;99.90
23556;DHT22;11956;53.184;8.578;2023-02-01T11:21:35;6.30;99.90
23556;DHT22;11956;53.184;8.578;2023-02-01T11:24:37;6.40;99.90
23556;DHT22;11956;53.184;8.578;2023-02-01T11:27:40;6.30;99.90
23556;DHT22;11956;53.184;8.578;2023-02-01T11:30:44;6.30;99.90
23556;DHT22;11956;53.184;8.578;2023-02-01T11:33:52;6.20;99.90
23556;DHT22;11956;53.184;8.578;2023-02-01T11:40:29;6.10;99.90
23556;DHT22;11956;53.184;8.578;2023-02-01T11:43:35;5.90;99.90
23556;DHT22;11956;53.184;8.578;2023-02-01T11:46:36;5.60;99.90
23556;DHT22;11956;53.184;8.578;2023-02-01T11:49:38;5.60;99.90
23556;DHT22;11956;53.184;8.578;2023-02-01T12:08:11;5.60;99.90
23556;DHT22;11956;53.184;8.578;2023-02-01T12:28:27;2.50;99.90
23556;DHT22;11956;53.184;8.578;2023-02-01T12:39:12;2.80;99.90
23556;DHT22;11956;53.184;8.578;2023-02-01T12:45:26;3.30;99.90
23556;DHT22;11956;53.184;8.578;2023-02-01T12:48:47;3.50;99.90
23556;DHT22;11956;53.184;8.578;2023-02-01T12:52:26;3.50;99.90
23556;DHT22;11956;53.184;8.578;2023-02-01T12:55:49;3.60;99.90
23556;DHT22;11956;53.184;8.578;2023-02-01T12:58:55;3.80;99.90
23556;DHT22;11956;53.184;8.578;2023-02-01T13:05:38;4.10;99.90
23556;DHT22;11956;53.184;8.578;2023-02-01T13:09:14;4.30;99.90
23556;DHT22;11956;53.184;8.578;2023-02-01T13:12:27;4.30;99.90
23556;DHT22;11956;53.184;8.578;2023-02-01T13:15:39;4.20;99.90
23556;DHT22;11956;53.184;8.578;2023-02-01T13:18:47;4.30;99.90
23556;DHT22;11956;53.184;8.578;2023-02-01T13:21:53;4.40;99.90
23556;DHT22;11956;53.184;8.578;2023-02-01T13:25:00;4.40;99.90
23556;DHT22;11956;53.184;8.578;2023-02-01T13:28:16;4.50;99.90
23556;DHT22;11956;53.184;8.578;2023-02-01T13:32:21;4.60;99.90
23556;DHT22;11956;53.184;8.578;2023-02-01T13:42:31;5.30;99.90
23556;DHT22;11956;53.184;8.578;2023-02-01T13:45:41;5.50;99.90
23556;DHT22;11956;53.184;8.578;2023-02-01T13:48:55;5.50;99.90
23556;DHT22;11956;53.184;8.578;2023-02-01T13:52:01;5.60;99.90
23556;DHT22;11956;53.184;8.578;2023-02-01T13:55:15;5.80;99.90
23556;DHT22;11956;53.184;8.578;2023-02-01T13:58:31;5.90;99.90
23556;DHT22;11956;53.184;8.578;2023-02-01T14:01:33;6.00;99.90
23556;DHT22;11956;53.184;8.578;2023-02-01T14:04:49;6.10;99.90
23556;DHT22;11956;53.184;8.578;2023-02-01T14:11:07;6.30;99.90
23556;DHT22;11956;53.184;8.578;2023-02-01T14:17:37;6.50;99.90
23556;DHT22;11956;53.184;8.578;2023-02-01T14:20:42;6.60;99.90
23556;DHT22;11956;53.184;8.578;2023-02-01T14:23:47;6.80;99.90
23556;DHT22;11956;53.184;8.578;2023-02-01T14:26:56;6.70;99.90
23556;DHT22;11956;53.184;8.578;2023-02-01T14:30:02;6.60;99.90
23556;DHT22;11956;53.184;8.578;2023-02-01T14:33:27;6.50;99.90
23556;DHT22;11956;53.184;8.578;2023-02-01T14:36:44;6.70;99.90
23556;DHT22;11956;53.184;8.578;2023-02-01T14:40:00;6.80;99.90
23556;DHT22;11956;53.184;8.578;2023-02-01T14:43:03;7.10;99.90
23556;DHT22;11956;53.184;8.578;2023-02-01T14:46:04;7.10;99.90
23556;DHT22;11956;53.184;8.578;2023-02-01T14:49:05;7.10;99.90
23556;DHT22;11956;53.184;8.578;2023-02-01T14:52:17;7.10;99.90
23556;DHT22;11956;53.184;8.578;2023-02-01T14:59:13;7.00;99.90
23556;DHT22;11956;53.184;8.578;2023-02-01T15:02:21;7.00;99.90
23556;DHT22;11956;53.184;8.578;2023-02-01T15:05:33;7.00;99.90
23556;DHT22;11956;53.184;8.578;2023-02-01T15:08:37;7.00;99.90
23556;DHT22;11956;53.184;8.578;2023-02-01T15:12:00;7.00;99.90
23556;DHT22;11956;53.184;8.578;2023-02-01T15:18:16;7.00;99.90
23556;DHT22;11956;53.184;8.578;2023-02-01T15:21:21;7.00;99.90
23556;DHT22;11956;53.184;8.578;2023-02-01T15:24:30;7.10;99.90
23556;DHT22;11956;53.184;8.578;2023-02-01T15:27:37;7.10;99.90
23556;DHT22;11956;53.184;8.578;2023-02-01T15:30:38;7.20;99.90
23556;DHT22;11956;53.184;8.578;2023-02-01T15:33:39;7.30;99.90
23556;DHT22;11956;53.184;8.578;2023-02-01T15:36:42;7.40;99.90
23556;DHT22;11956;53.184;8.578;2023-02-01T15:40:18;7.40;99.90
23556;DHT22;11956;53.184;8.578;2023-02-01T15:43:20;7.40;99.90
23556;DHT22;11956;53.184;8.578;2023-02-01T15:49:44;7.20;99.90
23556;DHT22;11956;53.184;8.578;2023-02-01T15:55:55;7.10;99.90
23556;DHT22;11956;53.184;8.578;2023-02-01T15:59:02;7.00;99.90
23556;DHT22;11956;53.184;8.578;2023-02-01T16:02:28;6.80;99.90
23556;DHT22;11956;53.184;8.578;2023-02-01T16:05:38;6.50;99.90
23556;DHT22;11956;53.184;8.578;2023-02-01T16:12:02;5.80;99.90
23556;DHT22;11956;53.184;8.578;2023-02-01T16:15:05;5.60;99.90
23556;DHT22;11956;53.184;8.578;2023-02-01T16:18:07;5.50;99.90
23556;DHT22;11956;53.184;8.578;2023-02-01T16:21:09;5.50;99.90
23556;DHT22;11956;53.184;8.578;2023-02-01T16:24:10;5.50;99.90
23556;DHT22;11956;53.184;8.578;2023-02-01T16:27:11;5.60;99.90
23556;DHT22;11956;53.184;8.578;2023-02-01T16:30:12;5.60;99.90
23556;DHT22;11956;53.184;8.578;2023-02-01T16:33:17;5.70;99.90
23556;DHT22;11956;53.184;8.578;2023-02-01T16:36:21;5.70;99.90
23556;DHT22;11956;53.184;8.578;2023-02-01T16:39:23;5.70;99.90
23556;DHT22;11956;53.184;8.578;2023-02-01T16:42:24;5.80;99.90
23556;DHT22;11956;53.184;8.578;2023-02-01T16:45:25;5.70;99.90
23556;DHT22;11956;53.184;8.578;2023-02-01T16:48:31;5.70;99.90
23556;DHT22;11956;53.184;8.578;2023-02-01T16:51:34;5.60;99.90
23556;DHT22;11956;53.184;8.578;2023-02-01T16:54:35;5.60;99.90
23556;DHT22;11956;53.184;8.578;2023-02-01T16:57:36;5.60;99.90
23556;DHT22;11956;53.184;8.578;2023-02-01T17:00:37;5.70;99.90
23556;DHT22;11956;53.184;8.578;2023-02-01T17:03:39;5.70;99.90
23556;DHT22;11956;53.184;8.578;2023-02-01T17:06:40;5.80;99.90
23556;DHT22;11956;53.184;8.578;2023-02-01T17:09:42;5.80;99.90
23556;DHT22;11956;53.184;8.578;2023-02-01T17:12:43;5.90;99.90
23556;DHT22;11956;53.184;8.578;2023-02-01T17:19:21;6.00;99.90
23556;DHT22;11956;53.184;8.578;2023-02-01T17:22:25;5.70;99.90
23556;DHT22;11956;53.184;8.578;2023-02-01T17:25:27;5.50;99.90
23556;DHT22;11956;53.184;8.578;2023-02-01T17:28:29;5.40;99.90
23556;DHT22;11956;53.184;8.578;2023-02-01T17:31:31;5.30;99.90
23556;DHT22;11956;53.184;8.578;2023-02-01T17:34:33;5.30;99.90
23556;DHT22;11956;53.184;8.578;2023-02-01T17:37:34;5.30;99.90
23556;DHT22;11956;53.184;8.578;2023-02-01T17:40:36;5.30;99.90
23556;DHT22;11956;53.184;8.578;2023-02-01T17:43:38;5.40;99.90
23556;DHT22;11956;53.184;8.578;2023-02-01T17:46:39;5.50;99.90
23556;DHT22;11956;53.184;8.578;2023-02-01T17:49:40;5.50;99.90
23556;DHT22;11956;53.184;8.578;2023-02-01T17:52:41;5.60;99.90
23556;DHT22;11956;53.184;8.578;2023-02-01T17:55:44;5.80;99.90
23556;DHT22;11956;53.184;8.578;2023-02-01T17:58:46;5.80;99.90
23556;DHT22;11956;53.184;8.578;2023-02-01T18:01:47;5.80;99.90
23556;DHT22;11956;53.184;8.578;2023-02-01T18:04:49;5.80;99.90
23556;DHT22;11956;53.184;8.578;2023-02-01T18:07:50;5.80;99.90
23556;DHT22;11956;53.184;8.578;2023-02-01T18:10:59;5.90;99.90
23556;DHT22;11956;53.184;8.578;2023-02-01T18:14:01;6.00;99.90
23556;DHT22;11956;53.184;8.578;2023-02-01T18:17:02;6.00;99.90
23556;DHT22;11956;53.184;8.578;2023-02-01T18:20:03;6.10;99.90
23556;DHT22;11956;53.184;8.578;2023-02-01T18:23:05;6.00;99.90
23556;DHT22;11956;53.184;8.578;2023-02-01T18:26:12;6.00;99.90
23556;DHT22;11956;53.184;8.578;2023-02-01T18:29:14;5.90;99.90
23556;DHT22;11956;53.184;8.578;2023-02-01T18:32:15;5.90;99.90
23556;DHT22;11956;53.184;8.578;2023-02-01T18:35:20;6.00;99.90
23556;DHT22;11956;53.184;8.578;2023-02-01T18:38:24;6.10;99.90
23556;DHT22;11956;53.184;8.578;2023-02-01T18:41:25;6.20;99.90
23556;DHT22;11956;53.184;8.578;2023-02-01T18:44:26;6.20;99.90
23556;DHT22;11956;53.184;8.578;2023-02-01T18:47:26;6.30;99.90
23556;DHT22;11956;53.184;8.578;2023-02-01T18:50:28;6.40;99.90
23556;DHT22;11956;53.184;8.578;2023-02-01T18:53:30;6.30;99.90
23556;DHT22;11956;53.184;8.578;2023-02-01T18:56:31;6.30;99.90
23556;DHT22;11956;53.184;8.578;2023-02-01T18:59:32;6.30;99.90
23556;DHT22;11956;53.184;8.578;2023-02-01T19:02:33;6.30;99.90
23556;DHT22;11956;53.184;8.578;2023-02-01T19:05:34;6.30;99.90
23556;DHT22;11956;53.184;8.578;2023-02-01T19:08:35;6.20;99.90
23556;DHT22;11956;53.184;8.578;2023-02-01T19:11:37;6.20;99.90
23556;DHT22;11956;53.184;8.578;2023-02-01T19:14:37;6.20;99.90
23556;DHT22;11956;53.184;8.578;2023-02-01T19:17:39;6.20;99.90
23556;DHT22;11956;53.184;8.578;2023-02-01T19:20:40;6.20;99.90
23556;DHT22;11956;53.184;8.578;2023-02-01T19:23:44;6.10;99.90
23556;DHT22;11956;53.184;8.578;2023-02-01T19:26:45;6.20;99.90
23556;DHT22;11956;53.184;8.578;2023-02-01T19:29:48;6.20;99.90
23556;DHT22;11956;53.184;8.578;2023-02-01T19:32:50;6.30;99.90
23556;DHT22;11956;53.184;8.578;2023-02-01T19:35:59;6.30;99.90
23556;DHT22;11956;53.184;8.578;2023-02-01T19:39:04;6.40;99.90
23556;DHT22;11956;53.184;8.578;2023-02-01T19:42:06;6.30;99.90
23556;DHT22;11956;53.184;8.578;2023-02-01T19:45:08;6.40;99.90
23556;DHT22;11956;53.184;8.578;2023-02-01T19:48:11;6.40;99.90
23556;DHT22;11956;53.184;8.578;2023-02-01T19:51:16;6.40;99.90
23556;DHT22;11956;53.184;8.578;2023-02-01T19:54:18;6.40;99.90
23556;DHT22;11956;53.184;8.578;2023-02-01T19:57:20;6.50;99.90
23556;DHT22;11956;53.184;8.578;2023-02-01T20:00:21;6.50;99.90
23556;DHT22;11956;53.184;8.578;2023-02-01T20:03:23;6.50;99.90
23556;DHT22;11956;53.184;8.578;2023-02-01T20:06:24;6.50;99.90
23556;DHT22;11956;53.184;8.578;2023-02-01T20:09:27;6.50;99.90
23556;DHT22;11956;53.184;8.578;2023-02-01T20:12:29;6.50;99.90
23556;DHT22;11956;53.184;8.578;2023-02-01T20:15:30;6.50;99.90
23556;DHT22;11956;53.184;8.578;2023-02-01T20:18:32;6.50;99.90
23556;DHT22;11956;53.184;8.578;2023-02-01T20:21:34;6.50;99.90
23556;DHT22;11956;53.184;8.578;2023-02-01T20:24:35;6.50;99.90
23556;DHT22;11956;53.184;8.578;2023-02-01T20:27:37;6.50;99.90
23556;DHT22;11956;53.184;8.578;2023-02-01T20:30:37;6.50;99.90
23556;DHT22;11956;53.184;8.578;2023-02-01T20:33:38;6.60;99.90
23556;DHT22;11956;53.184;8.578;2023-02-01T20:36:39;6.60;99.90
23556;DHT22;11956;53.184;8.578;2023-02-01T20:39:41;6.60;99.90
23556;DHT22;11956;53.184;8.578;2023-02-01T20:42:42;6.60;99.90
23556;DHT22;11956;53.184;8.578;2023-02-01T20:45:44;6.60;99.90
23556;DHT22;11956;53.184;8.578;2023-02-01T20:48:47;6.60;99.90
23556;DHT22;11956;53.184;8.578;2023-02-01T20:51:50;6.60;99.90
23556;DHT22;11956;53.184;8.578;2023-02-01T20:54:50;6.60;99.90
23556;DHT22;11956;53.184;8.578;2023-02-01T20:57:52;6.60;99.90
23556;DHT22;11956;53.184;8.578;2023-02-01T21:00:53;6.60;99.90
23556;DHT22;11956;53.184;8.578;2023-02-01T21:03:54;6.60;99.90
23556;DHT22;11956;53.184;8.578;2023-02-01T21:06:56;6.60;99.90
23556;DHT22;11956;53.184;8.578;2023-02-01T21:09:58;6.50;99.90
23556;DHT22;11956;53.184;8.578;2023-02-01T21:12:59;6.50;99.90
23556;DHT22;11956;53.184;8.578;2023-02-01T21:16:00;6.50;99.90
23556;DHT22;11956;53.184;8.578;2023-02-01T21:19:00;6.50;99.90
23556;DHT22;11956;53.184;8.578;2023-02-01T21:22:01;6.40;99.90
23556;DHT22;11956;53.184;8.578;2023-02-01T21:25:03;6.40;99.90
23556;DHT22;11956;53.184;8.578;2023-02-01T21:28:04;6.40;99.90
23556;DHT22;11956;53.184;8.578;2023-02-01T21:31:05;6.40;99.90
23556;DHT22;11956;53.184;8.578;2023-02-01T21:34:07;6.50;99.90
23556;DHT22;11956;53.184;8.578;2023-02-01T21:37:08;6.50;99.90
23556;DHT22;11956;53.184;8.578;2023-02-01T21:40:09;6.50;99.90
23556;DHT22;11956;53.184;8.578;2023-02-01T21:43:10;6.50;99.90
23556;DHT22;11956;53.184;8.578;2023-02-01T21:46:11;6.50;99.90
23556;DHT22;11956;53.184;8.578;2023-02-01T21:49:12;6.60;99.90
23556;DHT22;11956;53.184;8.578;2023-02-01T21:52:15;6.50;99.90
23556;DHT22;11956;53.184;8.578;2023-02-01T21:55:17;6.50;99.90